sensor_id;sensor_type;location;lat;lon;timestamp;temperature;humidity
26278;DHT22;14000;52.056;8.510;2023-03-25T00:00:56;9.30;99.90
26278;DHT22;14000;52.056;8.510;2023-03-25T00:03:30;9.20;99.90
26278;DHT22;14000;52.056;8.510;2023-03-25T00:05:58;9.30;99.90
26278;DHT22;14000;52.056;8.510;2023-03-25T00:08:25;9.20;99.90
26278;DHT22;14000;52.056;8.510;2023-03-25T00:10:52;9.30;99.90
26278;DHT22;14000;52.056;8.510;2023-03-25T00:13:19;9.30;99.90
26278;DHT22;14000;52.056;8.510;2023-03-25T00:15:46;9.40;99.90
26278;DHT22;14000;52.056;8.510;2023-03-25T00:18:12;9.40;99.90
26278;DHT22;14000;52.056;8.510;2023-03-25T00:20:39;9.40;99.90
26278;DHT22;14000;52.056;8.510;2023-03-25T00:23:06;9.50;99.90
26278;DHT22;14000;52.056;8.510;2023-03-25T00:25:32;9.50;99.90
26278;DHT22;14000;52.056;8.510;2023-03-25T00:27:59;9.50;99.90
26278;DHT22;14000;52.056;8.510;2023-03-25T00:30:24;9.50;99.90
26278;DHT22;14000;52.056;8.510;2023-03-25T00:32:51;9.50;99.90
26278;DHT22;14000;52.056;8.510;2023-03-25T00:35:19;9.50;99.90
26278;DHT22;14000;52.056;8.510;2023-03-25T00:37:47;9.50;99.90
26278;DHT22;14000;52.056;8.510;2023-03-25T00:40:16;9.60;99.90
26278;DHT22;14000;52.056;8.510;2023-03-25T00:42:42;9.50;99.90
26278;DHT22;14000;52.056;8.510;2023-03-25T00:45:11;9.60;99.90
26278;DHT22;14000;52.056;8.510;2023-03-25T00:47:37;9.50;99.90
26278;DHT22;14000;52.056;8.510;2023-03-25T00:50:03;9.40;99.90
26278;DHT22;14000;52.056;8.510;2023-03-25T00:52:30;9.40;99.90
26278;DHT22;14000;52.056;8.510;2023-03-25T00:54:56;9.30;99.90
26278;DHT22;14000;52.056;8.510;2023-03-25T00:57:21;9.20;99.90
26278;DHT22;14000;52.056;8.510;2023-03-25T00:59:47;9.20;99.90
26278;DHT22;14000;52.056;8.510;2023-03-25T01:02:12;9.10;99.90
26278;DHT22;14000;52.056;8.510;2023-03-25T01:04:41;9.10;99.90
26278;DHT22;14000;52.056;8.510;2023-03-25T01:07:10;9.10;99.90
26278;DHT22;14000;52.056;8.510;2023-03-25T01:09:38;9.10;99.90
26278;DHT22;14000;52.056;8.510;2023-03-25T01:12:04;9.00;99.90
26278;DHT22;14000;52.056;8.510;2023-03-25T01:14:30;9.00;99.90
26278;DHT22;14000;52.056;8.510;2023-03-25T01:16:58;8.90;99.90
26278;DHT22;14000;52.056;8.510;2023-03-25T01:19:24;8.90;99.90
26278;DHT22;14000;52.056;8.510;2023-03-25T01:21:50;8.90;99.90
26278;DHT22;14000;52.056;8.510;2023-03-25T01:24:15;8.90;99.90
26278;DHT22;14000;52.056;8.510;2023-03-25T01:26:42;8.90;99.90
26278;DHT22;14000;52.056;8.510;2023-03-25T01:29:10;8.90;99.90
26278;DHT22;14000;52.056;8.510;2023-03-25T01:31:36;9.00;99.90
26278;DHT22;14000;52.056;8.510;2023-03-25T01:34:01;9.00;99.90
26278;DHT22;14000;52.056;8.510;2023-03-25T01:36:28;9.00;99.90
26278;DHT22;14000;52.056;8.510;2023-03-25T01:38:58;9.10;99.90
26278;DHT22;14000;52.056;8.510;2023-03-25T01:41:25;9.10;99.90
26278;DHT22;14000;52.056;8.510;2023-03-25T01:46:49;9.20;99.90
26278;DHT22;14000;52.056;8.510;2023-03-25T01:49:38;9.20;99.90
26278;DHT22;14000;52.056;8.510;2023-03-25T01:52:13;9.10;99.90
26278;DHT22;14000;52.056;8.510;2023-03-25T01:54:39;9.20;99.90
26278;DHT22;14000;52.056;8.510;2023-03-25T01:57:07;9.10;99.90
26278;DHT22;14000;52.056;8.510;2023-03-25T01:59:34;9.20;99.90
26278;DHT22;14000;52.056;8.510;2023-03-25T02:02:03;9.20;99.90
26278;DHT22;14000;52.056;8.510;2023-03-25T02:04:58;9.10;99.90
26278;DHT22;14000;52.056;8.510;2023-03-25T02:07:27;9.00;99.90
26278;DHT22;14000;52.056;8.510;2023-03-25T02:09:57;8.90;99.90
26278;DHT22;14000;52.056;8.510;2023-03-25T02:12:23;8.90;99.90
26278;DHT22;14000;52.056;8.510;2023-03-25T02:14:49;8.80;99.90
26278;DHT22;14000;52.056;8.510;2023-03-25T02:28:54;8.90;99.90
26278;DHT22;14000;52.056;8.510;2023-03-25T02:31:46;9.00;99.90
26278;DHT22;14000;52.056;8.510;2023-03-25T02:40:18;9.00;99.90
26278;DHT22;14000;52.056;8.510;2023-03-25T02:43:02;9.10;99.90
26278;DHT22;14000;52.056;8.510;2023-03-25T02:45:43;9.10;99.90
26278;DHT22;14000;52.056;8.510;2023-03-25T02:48:18;9.10;99.90
26278;DHT22;14000;52.056;8.510;2023-03-25T02:50:54;9.20;99.90
26278;DHT22;14000;52.056;8.510;2023-03-25T02:53:25;9.10;99.90
26278;DHT22;14000;52.056;8.510;2023-03-25T02:55:55;9.10;99.90
26278;DHT22;14000;52.056;8.510;2023-03-25T02:58:23;9.00;99.90
26278;DHT22;14000;52.056;8.510;2023-03-25T03:00:50;9.00;99.90
26278;DHT22;14000;52.056;8.510;2023-03-25T03:03:16;9.00;99.90
26278;DHT22;14000;52.056;8.510;2023-03-25T03:05:44;8.90;99.90
26278;DHT22;14000;52.056;8.510;2023-03-25T03:19:41;8.80;99.90
26278;DHT22;14000;52.056;8.510;2023-03-25T03:27:50;8.70;99.90
26278;DHT22;14000;52.056;8.510;2023-03-25T03:30:27;8.70;99.90
26278;DHT22;14000;52.056;8.510;2023-03-25T03:33:19;8.70;99.90
26278;DHT22;14000;52.056;8.510;2023-03-25T03:36:14;8.60;99.90
26278;DHT22;14000;52.056;8.510;2023-03-25T03:38:48;8.60;99.90
26278;DHT22;14000;52.056;8.510;2023-03-25T03:41:18;8.60;99.90
26278;DHT22;14000;52.056;8.510;2023-03-25T03:44:08;8.60;99.90
26278;DHT22;14000;52.056;8.510;2023-03-25T03:46:42;8.60;99.90
26278;DHT22;14000;52.056;8.510;2023-03-25T03:49:15;8.60;99.90
26278;DHT22;14000;52.056;8.510;2023-03-25T03:51:46;8.40;99.90
26278;DHT22;14000;52.056;8.510;2023-03-25T04:02:12;7.90;99.90
26278;DHT22;14000;52.056;8.510;2023-03-25T04:04:39;7.80;99.90
26278;DHT22;14000;52.056;8.510;2023-03-25T04:07:31;7.80;99.90
26278;DHT22;14000;52.056;8.510;2023-03-25T04:10:29;7.80;99.90
26278;DHT22;14000;52.056;8.510;2023-03-25T04:13:01;7.80;99.90
26278;DHT22;14000;52.056;8.510;2023-03-25T04:15:28;7.80;99.90
26278;DHT22;14000;52.056;8.510;2023-03-25T04:17:54;7.80;99.90
26278;DHT22;14000;52.056;8.510;2023-03-25T04:20:22;7.80;99.90
26278;DHT22;14000;52.056;8.510;2023-03-25T04:22:50;7.80;99.90
26278;DHT22;14000;52.056;8.510;2023-03-25T04:25:16;7.90;99.90
26278;DHT22;14000;52.056;8.510;2023-03-25T04:27:42;7.80;99.90
26278;DHT22;14000;52.056;8.510;2023-03-25T04:30:13;7.80;99.90
26278;DHT22;14000;52.056;8.510;2023-03-25T04:32:39;7.80;99.90
26278;DHT22;14000;52.056;8.510;2023-03-25T04:35:04;7.90;99.90
26278;DHT22;14000;52.056;8.510;2023-03-25T04:37:30;7.90;99.90
26278;DHT22;14000;52.056;8.510;2023-03-25T04:39:58;7.90;99.90
26278;DHT22;14000;52.056;8.510;2023-03-25T04:42:24;7.90;99.90
26278;DHT22;14000;52.056;8.510;2023-03-25T04:44:57;7.90;99.90
26278;DHT22;14000;52.056;8.510;2023-03-25T04:47:24;7.90;99.90
26278;DHT22;14000;52.056;8.510;2023-03-25T04:49:50;8.00;99.90
26278;DHT22;14000;52.056;8.510;2023-03-25T04:52:16;8.00;99.90
26278;DHT22;14000;52.056;8.510;2023-03-25T04:54:42;8.00;99.90
26278;DHT22;14000;52.056;8.510;2023-03-25T04:57:09;8.10;99.90
26278;DHT22;14000;52.056;8.510;2023-03-25T04:59:34;8.10;99.90
26278;DHT22;14000;52.056;8.510;2023-03-25T05:02:01;8.10;99.90
26278;DHT22;14000;52.056;8.510;2023-03-25T05:04:27;8.10;99.90
26278;DHT22;14000;52.056;8.510;2023-03-25T05:06:53;8.10;99.90
26278;DHT22;14000;52.056;8.510;2023-03-25T05:09:21;8.10;99.90
26278;DHT22;14000;52.056;8.510;2023-03-25T05:11:47;8.20;99.90
26278;DHT22;14000;52.056;8.510;2023-03-25T05:14:15;8.20;99.90
26278;DHT22;14000;52.056;8.510;2023-03-25T05:16:41;8.20;99.90
26278;DHT22;14000;52.056;8.510;2023-03-25T05:19:07;8.20;99.90
26278;DHT22;14000;52.056;8.510;2023-03-25T05:21:34;8.20;99.90
26278;DHT22;14000;52.056;8.510;2023-03-25T05:24:01;8.20;99.90
26278;DHT22;14000;52.056;8.510;2023-03-25T05:26:27;8.20;99.90
26278;DHT22;14000;52.056;8.510;2023-03-25T05:29:02;8.20;99.90
26278;DHT22;14000;52.056;8.510;2023-03-25T05:31:28;8.10;99.90
26278;DHT22;14000;52.056;8.510;2023-03-25T05:33:54;8.00;99.90
26278;DHT22;14000;52.056;8.510;2023-03-25T05:36:20;8.00;99.90
26278;DHT22;14000;52.056;8.510;2023-03-25T05:38:50;8.00;99.90
26278;DHT22;14000;52.056;8.510;2023-03-25T05:41:15;8.00;99.90
26278;DHT22;14000;52.056;8.510;2023-03-25T05:43:45;8.00;99.90
26278;DHT22;14000;52.056;8.510;2023-03-25T05:46:16;8.10;99.90
26278;DHT22;14000;52.056;8.510;2023-03-25T05:48:42;8.00;99.90
26278;DHT22;14000;52.056;8.510;2023-03-25T05:51:17;8.10;99.90
26278;DHT22;14000;52.056;8.510;2023-03-25T05:53:47;8.20;99.90
26278;DHT22;14000;52.056;8.510;2023-03-25T05:56:20;8.30;99.90
26278;DHT22;14000;52.056;8.510;2023-03-25T05:58:47;8.20;99.90
26278;DHT22;14000;52.056;8.510;2023-03-25T06:01:14;8.20;99.90
26278;DHT22;14000;52.056;8.510;2023-03-25T06:03:42;8.30;99.90
26278;DHT22;14000;52.056;8.510;2023-03-25T06:06:08;8.30;99.90
26278;DHT22;14000;52.056;8.510;2023-03-25T06:08:54;8.30;99.90
26278;DHT22;14000;52.056;8.510;2023-03-25T06:11:20;8.30;99.90
26278;DHT22;14000;52.056;8.510;2023-03-25T06:13:46;8.30;99.90
26278;DHT22;14000;52.056;8.510;2023-03-25T06:16:20;8.40;99.90
26278;DHT22;14000;52.056;8.510;2023-03-25T06:18:50;8.30;99.90
26278;DHT22;14000;52.056;8.510;2023-03-25T06:21:21;8.30;99.90
26278;DHT22;14000;52.056;8.510;2023-03-25T06:23:48;8.10;99.90
26278;DHT22;14000;52.056;8.510;2023-03-25T06:26:17;7.80;99.90
26278;DHT22;14000;52.056;8.510;2023-03-25T06:28:43;7.70;99.90
26278;DHT22;14000;52.056;8.510;2023-03-25T06:31:15;7.60;99.90
26278;DHT22;14000;52.056;8.510;2023-03-25T06:33:45;7.50;99.90
26278;DHT22;14000;52.056;8.510;2023-03-25T06:36:13;7.50;99.90
26278;DHT22;14000;52.056;8.510;2023-03-25T06:38:46;7.50;99.90
26278;DHT22;14000;52.056;8.510;2023-03-25T06:41:13;7.40;99.90
26278;DHT22;14000;52.056;8.510;2023-03-25T06:43:39;7.50;99.90
26278;DHT22;14000;52.056;8.510;2023-03-25T06:46:05;7.50;99.90
26278;DHT22;14000;52.056;8.510;2023-03-25T06:48:31;7.40;99.90
26278;DHT22;14000;52.056;8.510;2023-03-25T06:50:57;7.50;99.90
26278;DHT22;14000;52.056;8.510;2023-03-25T06:53:22;7.50;99.90
26278;DHT22;14000;52.056;8.510;2023-03-25T06:55:48;7.50;99.90
26278;DHT22;14000;52.056;8.510;2023-03-25T06:58:14;7.60;99.90
26278;DHT22;14000;52.056;8.510;2023-03-25T07:00:39;7.60;99.90
26278;DHT22;14000;52.056;8.510;2023-03-25T07:03:05;7.70;99.90
26278;DHT22;14000;52.056;8.510;2023-03-25T07:05:30;7.80;99.90
26278;DHT22;14000;52.056;8.510;2023-03-25T07:07:57;7.70;99.90
26278;DHT22;14000;52.056;8.510;2023-03-25T07:10:23;7.70;99.90
26278;DHT22;14000;52.056;8.510;2023-03-25T07:12:48;7.80;99.90
26278;DHT22;14000;52.056;8.510;2023-03-25T07:15:14;7.90;99.90
26278;DHT22;14000;52.056;8.510;2023-03-25T07:17:40;7.90;99.90
26278;DHT22;14000;52.056;8.510;2023-03-25T07:20:08;7.90;99.90
26278;DHT22;14000;52.056;8.510;2023-03-25T07:22:33;8.00;99.90
26278;DHT22;14000;52.056;8.510;2023-03-25T07:24:59;8.00;99.90
26278;DHT22;14000;52.056;8.510;2023-03-25T07:27:25;8.10;99.90
26278;DHT22;14000;52.056;8.510;2023-03-25T07:29:51;8.10;99.90
26278;DHT22;14000;52.056;8.510;2023-03-25T07:32:16;8.00;99.90
26278;DHT22;14000;52.056;8.510;2023-03-25T07:34:42;8.10;99.90
26278;DHT22;14000;52.056;8.510;2023-03-25T07:37:08;8.10;99.90
26278;DHT22;14000;52.056;8.510;2023-03-25T07:39:33;8.00;99.90
26278;DHT22;14000;52.056;8.510;2023-03-25T07:41:59;8.00;99.90
26278;DHT22;14000;52.056;8.510;2023-03-25T07:44:25;8.00;99.90
26278;DHT22;14000;52.056;8.510;2023-03-25T07:46:50;8.00;99.90
26278;DHT22;14000;52.056;8.510;2023-03-25T07:49:16;8.10;99.90
26278;DHT22;14000;52.056;8.510;2023-03-25T07:51:43;8.00;99.90
26278;DHT22;14000;52.056;8.510;2023-03-25T07:54:09;8.00;99.90
26278;DHT22;14000;52.056;8.510;2023-03-25T07:56:35;8.00;99.90
26278;DHT22;14000;52.056;8.510;2023-03-25T07:59:00;8.00;99.90
26278;DHT22;14000;52.056;8.510;2023-03-25T08:01:26;8.10;99.90
26278;DHT22;14000;52.056;8.510;2023-03-25T08:03:52;8.10;99.90
26278;DHT22;14000;52.056;8.510;2023-03-25T08:06:17;8.10;99.90
26278;DHT22;14000;52.056;8.510;2023-03-25T08:08:43;8.20;99.90
26278;DHT22;14000;52.056;8.510;2023-03-25T08:11:09;8.10;99.90
26278;DHT22;14000;52.056;8.510;2023-03-25T08:13:35;8.20;99.90
26278;DHT22;14000;52.056;8.510;2023-03-25T08:16:01;8.30;99.90
26278;DHT22;14000;52.056;8.510;2023-03-25T08:18:27;8.40;99.90
26278;DHT22;14000;52.056;8.510;2023-03-25T08:20:52;8.50;99.90
26278;DHT22;14000;52.056;8.510;2023-03-25T08:23:19;8.50;99.90
26278;DHT22;14000;52.056;8.510;2023-03-25T08:25:46;8.60;99.90
26278;DHT22;14000;52.056;8.510;2023-03-25T08:28:16;8.60;99.90
26278;DHT22;14000;52.056;8.510;2023-03-25T08:30:43;8.60;99.90
26278;DHT22;14000;52.056;8.510;2023-03-25T08:33:09;8.60;99.90
26278;DHT22;14000;52.056;8.510;2023-03-25T08:35:36;8.70;99.90
26278;DHT22;14000;52.056;8.510;2023-03-25T08:38:03;8.60;99.90
26278;DHT22;14000;52.056;8.510;2023-03-25T08:40:33;8.60;99.90
26278;DHT22;14000;52.056;8.510;2023-03-25T08:42:59;8.70;99.90
26278;DHT22;14000;52.056;8.510;2023-03-25T08:45:25;8.60;99.90
26278;DHT22;14000;52.056;8.510;2023-03-25T08:47:50;8.60;99.90
26278;DHT22;14000;52.056;8.510;2023-03-25T08:50:16;8.60;99.90
26278;DHT22;14000;52.056;8.510;2023-03-25T08:52:42;8.60;99.90
26278;DHT22;14000;52.056;8.510;2023-03-25T08:55:09;8.70;99.90
26278;DHT22;14000;52.056;8.510;2023-03-25T08:57:36;8.70;99.90
26278;DHT22;14000;52.056;8.510;2023-03-25T09:00:03;8.80;99.90
26278;DHT22;14000;52.056;8.510;2023-03-25T09:02:31;8.80;99.90
26278;DHT22;14000;52.056;8.510;2023-03-25T09:04:56;8.80;99.90
26278;DHT22;14000;52.056;8.510;2023-03-25T09:07:22;8.80;99.90
26278;DHT22;14000;52.056;8.510;2023-03-25T09:09:47;8.90;99.90
26278;DHT22;14000;52.056;8.510;2023-03-25T09:12:13;8.90;99.90
26278;DHT22;14000;52.056;8.510;2023-03-25T09:14:39;8.90;99.90
26278;DHT22;14000;52.056;8.510;2023-03-25T09:17:04;9.00;99.90
26278;DHT22;14000;52.056;8.510;2023-03-25T09:19:34;9.00;99.90
26278;DHT22;14000;52.056;8.510;2023-03-25T09:22:02;9.10;99.90
26278;DHT22;14000;52.056;8.510;2023-03-25T09:24:28;9.10;99.90
26278;DHT22;14000;52.056;8.510;2023-03-25T09:26:53;9.10;99.90
26278;DHT22;14000;52.056;8.510;2023-03-25T09:29:19;9.10;99.90
26278;DHT22;14000;52.056;8.510;2023-03-25T09:31:44;9.10;99.90
26278;DHT22;14000;52.056;8.510;2023-03-25T09:34:10;9.10;99.90
26278;DHT22;14000;52.056;8.510;2023-03-25T09:36:35;9.20;99.90
26278;DHT22;14000;52.056;8.510;2023-03-25T09:39:01;9.30;99.90
26278;DHT22;14000;52.056;8.510;2023-03-25T09:41:44;9.50;99.90
26278;DHT22;14000;52.056;8.510;2023-03-25T09:44:27;9.70;99.90
26278;DHT22;14000;52.056;8.510;2023-03-25T09:46:55;10.00;99.90
26278;DHT22;14000;52.056;8.510;2023-03-25T09:49:30;10.00;99.90
26278;DHT22;14000;52.056;8.510;2023-03-25T09:52:01;10.10;99.90
26278;DHT22;14000;52.056;8.510;2023-03-25T09:54:30;10.00;99.90
26278;DHT22;14000;52.056;8.510;2023-03-25T09:57:03;10.00;99.90
26278;DHT22;14000;52.056;8.510;2023-03-25T09:59:43;9.90;99.90
26278;DHT22;14000;52.056;8.510;2023-03-25T10:26:48;10.20;99.90
26278;DHT22;14000;52.056;8.510;2023-03-25T10:29:25;10.10;99.90
26278;DHT22;14000;52.056;8.510;2023-03-25T10:31:55;9.80;99.90
26278;DHT22;14000;52.056;8.510;2023-03-25T10:34:45;9.60;99.90
26278;DHT22;14000;52.056;8.510;2023-03-25T10:37:18;9.50;99.90
26278;DHT22;14000;52.056;8.510;2023-03-25T10:39:48;9.50;99.90
26278;DHT22;14000;52.056;8.510;2023-03-25T10:42:21;9.30;99.90
26278;DHT22;14000;52.056;8.510;2023-03-25T10:44:48;9.30;99.90
26278;DHT22;14000;52.056;8.510;2023-03-25T10:47:19;9.30;99.90
26278;DHT22;14000;52.056;8.510;2023-03-25T10:49:48;9.30;99.90
26278;DHT22;14000;52.056;8.510;2023-03-25T10:52:15;9.30;99.90
26278;DHT22;14000;52.056;8.510;2023-03-25T10:54:45;9.20;99.90
26278;DHT22;14000;52.056;8.510;2023-03-25T10:57:27;9.10;99.90
26278;DHT22;14000;52.056;8.510;2023-03-25T11:00:14;9.00;99.90
26278;DHT22;14000;52.056;8.510;2023-03-25T11:02:41;9.00;99.90
26278;DHT22;14000;52.056;8.510;2023-03-25T11:05:08;9.10;99.90
26278;DHT22;14000;52.056;8.510;2023-03-25T11:07:39;9.30;99.90
26278;DHT22;14000;52.056;8.510;2023-03-25T11:10:30;9.50;99.90
26278;DHT22;14000;52.056;8.510;2023-03-25T11:12:59;9.90;99.90
26278;DHT22;14000;52.056;8.510;2023-03-25T11:15:33;10.10;99.90
26278;DHT22;14000;52.056;8.510;2023-03-25T11:18:34;10.30;99.90
26278;DHT22;14000;52.056;8.510;2023-03-25T11:21:07;10.50;99.90
26278;DHT22;14000;52.056;8.510;2023-03-25T11:23:50;10.50;99.90
26278;DHT22;14000;52.056;8.510;2023-03-25T11:26:21;10.40;99.90
26278;DHT22;14000;52.056;8.510;2023-03-25T11:28:51;10.00;99.90
26278;DHT22;14000;52.056;8.510;2023-03-25T11:31:20;9.60;99.90
26278;DHT22;14000;52.056;8.510;2023-03-25T11:34:09;9.20;99.90
26278;DHT22;14000;52.056;8.510;2023-03-25T11:36:46;8.60;99.90
26278;DHT22;14000;52.056;8.510;2023-03-25T11:41:50;8.70;99.90
26278;DHT22;14000;52.056;8.510;2023-03-25T11:44:27;9.50;99.90
26278;DHT22;14000;52.056;8.510;2023-03-25T11:46:56;10.00;99.90
26278;DHT22;14000;52.056;8.510;2023-03-25T11:49:24;10.40;99.90
26278;DHT22;14000;52.056;8.510;2023-03-25T11:51:56;10.10;99.90
26278;DHT22;14000;52.056;8.510;2023-03-25T11:54:24;9.80;99.90
26278;DHT22;14000;52.056;8.510;2023-03-25T11:56:51;9.60;99.90
26278;DHT22;14000;52.056;8.510;2023-03-25T11:59:32;9.60;99.90
26278;DHT22;14000;52.056;8.510;2023-03-25T12:02:08;9.70;99.90
26278;DHT22;14000;52.056;8.510;2023-03-25T12:04:54;9.70;99.90
26278;DHT22;14000;52.056;8.510;2023-03-25T12:07:20;10.00;99.90
26278;DHT22;14000;52.056;8.510;2023-03-25T12:09:56;10.40;99.90
26278;DHT22;14000;52.056;8.510;2023-03-25T12:12:39;11.00;99.90
26278;DHT22;14000;52.056;8.510;2023-03-25T12:20:53;11.80;99.90
26278;DHT22;14000;52.056;8.510;2023-03-25T12:26:27;11.30;99.90
26278;DHT22;14000;52.056;8.510;2023-03-25T12:32:03;10.60;99.90
26278;DHT22;14000;52.056;8.510;2023-03-25T12:34:58;10.10;99.90
26278;DHT22;14000;52.056;8.510;2023-03-25T12:37:34;9.70;99.90
26278;DHT22;14000;52.056;8.510;2023-03-25T12:46:13;9.10;99.90
26278;DHT22;14000;52.056;8.510;2023-03-25T12:54:25;8.60;99.90
26278;DHT22;14000;52.056;8.510;2023-03-25T12:57:00;8.60;99.90
26278;DHT22;14000;52.056;8.510;2023-03-25T13:07:53;8.80;99.90
26278;DHT22;14000;52.056;8.510;2023-03-25T13:10:22;8.90;99.90
26278;DHT22;14000;52.056;8.510;2023-03-25T13:12:50;8.90;99.90
26278;DHT22;14000;52.056;8.510;2023-03-25T13:15:19;9.00;99.90
26278;DHT22;14000;52.056;8.510;2023-03-25T13:18:13;9.00;99.90
26278;DHT22;14000;52.056;8.510;2023-03-25T13:23:32;9.20;99.90
26278;DHT22;14000;52.056;8.510;2023-03-25T13:26:09;9.10;99.90
26278;DHT22;14000;52.056;8.510;2023-03-25T13:28:48;9.20;99.90
26278;DHT22;14000;52.056;8.510;2023-03-25T13:31:27;9.20;99.90
26278;DHT22;14000;52.056;8.510;2023-03-25T13:36:44;9.10;99.90
26278;DHT22;14000;52.056;8.510;2023-03-25T13:39:26;9.10;99.90
26278;DHT22;14000;52.056;8.510;2023-03-25T13:42:02;9.20;99.90
26278;DHT22;14000;52.056;8.510;2023-03-25T13:44:38;9.30;99.90
26278;DHT22;14000;52.056;8.510;2023-03-25T13:47:36;9.40;99.90
26278;DHT22;14000;52.056;8.510;2023-03-25T13:53:14;10.30;99.90
26278;DHT22;14000;52.056;8.510;2023-03-25T13:56:01;10.70;99.90
26278;DHT22;14000;52.056;8.510;2023-03-25T13:58:59;10.70;99.90
26278;DHT22;14000;52.056;8.510;2023-03-25T14:12:31;10.00;99.90
26278;DHT22;14000;52.056;8.510;2023-03-25T14:17:30;9.70;99.90
26278;DHT22;14000;52.056;8.510;2023-03-25T14:19:57;9.20;99.90
26278;DHT22;14000;52.056;8.510;2023-03-25T14:22:30;9.10;99.90
26278;DHT22;14000;52.056;8.510;2023-03-25T14:24:57;8.90;99.90
26278;DHT22;14000;52.056;8.510;2023-03-25T14:30:18;8.90;99.90
26278;DHT22;14000;52.056;8.510;2023-03-25T14:32:46;8.80;99.90
26278;DHT22;14000;52.056;8.510;2023-03-25T14:43:51;8.70;99.90
26278;DHT22;14000;52.056;8.510;2023-03-25T14:46:34;8.70;99.90
26278;DHT22;14000;52.056;8.510;2023-03-25T14:49:18;8.70;99.90
26278;DHT22;14000;52.056;8.510;2023-03-25T14:51:49;8.60;99.90
26278;DHT22;14000;52.056;8.510;2023-03-25T14:54:31;8.50;99.90
26278;DHT22;14000;52.056;8.510;2023-03-25T14:57:13;8.30;99.90
26278;DHT22;14000;52.056;8.510;2023-03-25T14:59:43;8.20;99.90
26278;DHT22;14000;52.056;8.510;2023-03-25T15:02:20;8.20;99.90
26278;DHT22;14000;52.056;8.510;2023-03-25T15:07:48;8.20;99.90
26278;DHT22;14000;52.056;8.510;2023-03-25T15:10:25;8.20;99.90
26278;DHT22;14000;52.056;8.510;2023-03-25T15:24:04;8.40;99.90
26278;DHT22;14000;52.056;8.510;2023-03-25T15:26:36;8.40;99.90
26278;DHT22;14000;52.056;8.510;2023-03-25T15:32:17;8.40;99.90
26278;DHT22;14000;52.056;8.510;2023-03-25T15:40:29;8.40;99.90
26278;DHT22;14000;52.056;8.510;2023-03-25T15:52:00;8.30;99.90
26278;DHT22;14000;52.056;8.510;2023-03-25T15:54:45;8.30;99.90
26278;DHT22;14000;52.056;8.510;2023-03-25T15:57:21;8.30;99.90
26278;DHT22;14000;52.056;8.510;2023-03-25T15:59:56;8.40;99.90
26278;DHT22;14000;52.056;8.510;2023-03-25T16:02:35;8.40;99.90
26278;DHT22;14000;52.056;8.510;2023-03-25T16:05:03;8.50;99.90
26278;DHT22;14000;52.056;8.510;2023-03-25T16:07:29;8.50;99.90
26278;DHT22;14000;52.056;8.510;2023-03-25T16:10:13;8.50;99.90
26278;DHT22;14000;52.056;8.510;2023-03-25T16:12:43;8.50;99.90
26278;DHT22;14000;52.056;8.510;2023-03-25T16:15:14;8.50;99.90
26278;DHT22;14000;52.056;8.510;2023-03-25T16:17:42;8.50;99.90
26278;DHT22;14000;52.056;8.510;2023-03-25T16:20:13;8.50;99.90
26278;DHT22;14000;52.056;8.510;2023-03-25T16:22:41;8.50;99.90
26278;DHT22;14000;52.056;8.510;2023-03-25T16:25:26;8.50;99.90
26278;DHT22;14000;52.056;8.510;2023-03-25T16:27:55;8.50;99.90
26278;DHT22;14000;52.056;8.510;2023-03-25T16:30:33;8.50;99.90
26278;DHT22;14000;52.056;8.510;2023-03-25T16:35:58;8.60;99.90
26278;DHT22;14000;52.056;8.510;2023-03-25T16:38:24;8.60;99.90
26278;DHT22;14000;52.056;8.510;2023-03-25T16:40:50;8.60;99.90
26278;DHT22;14000;52.056;8.510;2023-03-25T16:43:23;8.50;99.90
26278;DHT22;14000;52.056;8.510;2023-03-25T16:45:51;8.60;99.90
26278;DHT22;14000;52.056;8.510;2023-03-25T16:48:28;8.50;99.90
26278;DHT22;14000;52.056;8.510;2023-03-25T16:50:57;8.40;99.90
26278;DHT22;14000;52.056;8.510;2023-03-25T16:53:24;8.30;99.90
26278;DHT22;14000;52.056;8.510;2023-03-25T16:58:55;8.30;99.90
26278;DHT22;14000;52.056;8.510;2023-03-25T17:01:21;8.30;99.90
26278;DHT22;14000;52.056;8.510;2023-03-25T17:03:48;8.30;99.90
26278;DHT22;14000;52.056;8.510;2023-03-25T17:06:32;8.30;99.90
26278;DHT22;14000;52.056;8.510;2023-03-25T17:09:01;8.30;99.90
26278;DHT22;14000;52.056;8.510;2023-03-25T17:11:30;8.40;99.90
26278;DHT22;14000;52.056;8.510;2023-03-25T17:14:07;8.40;99.90
26278;DHT22;14000;52.056;8.510;2023-03-25T17:16:40;8.40;99.90
26278;DHT22;14000;52.056;8.510;2023-03-25T17:19:06;8.40;99.90
26278;DHT22;14000;52.056;8.510;2023-03-25T17:21:35;8.40;99.90
26278;DHT22;14000;52.056;8.510;2023-03-25T17:24:21;8.40;99.90
26278;DHT22;14000;52.056;8.510;2023-03-25T17:27:04;8.50;99.90
26278;DHT22;14000;52.056;8.510;2023-03-25T17:29:31;8.50;99.90
26278;DHT22;14000;52.056;8.510;2023-03-25T17:31:57;8.50;99.90
26278;DHT22;14000;52.056;8.510;2023-03-25T17:34:24;8.50;99.90
26278;DHT22;14000;52.056;8.510;2023-03-25T17:36:59;8.60;99.90
26278;DHT22;14000;52.056;8.510;2023-03-25T17:39:26;8.60;99.90
26278;DHT22;14000;52.056;8.510;2023-03-25T17:42:03;8.60;99.90
26278;DHT22;14000;52.056;8.510;2023-03-25T17:44:42;8.60;99.90
26278;DHT22;14000;52.056;8.510;2023-03-25T17:47:16;8.50;99.90
26278;DHT22;14000;52.056;8.510;2023-03-25T17:49:42;8.20;99.90
26278;DHT22;14000;52.056;8.510;2023-03-25T17:52:07;7.90;99.90
26278;DHT22;14000;52.056;8.510;2023-03-25T17:54:36;7.80;99.90
26278;DHT22;14000;52.056;8.510;2023-03-25T17:57:13;7.60;99.90
26278;DHT22;14000;52.056;8.510;2023-03-25T17:59:40;7.50;99.90
26278;DHT22;14000;52.056;8.510;2023-03-25T18:02:13;7.40;99.90
26278;DHT22;14000;52.056;8.510;2023-03-25T18:04:39;7.30;99.90
26278;DHT22;14000;52.056;8.510;2023-03-25T18:07:05;7.20;99.90
26278;DHT22;14000;52.056;8.510;2023-03-25T18:09:30;7.20;99.90
26278;DHT22;14000;52.056;8.510;2023-03-25T18:11:56;7.20;99.90
26278;DHT22;14000;52.056;8.510;2023-03-25T18:14:23;7.20;99.90
26278;DHT22;14000;52.056;8.510;2023-03-25T18:16:50;7.20;99.90
26278;DHT22;14000;52.056;8.510;2023-03-25T18:19:18;7.20;99.90
26278;DHT22;14000;52.056;8.510;2023-03-25T18:21:44;7.20;99.90
26278;DHT22;14000;52.056;8.510;2023-03-25T18:24:11;7.20;99.90
26278;DHT22;14000;52.056;8.510;2023-03-25T18:26:38;7.20;99.90
26278;DHT22;14000;52.056;8.510;2023-03-25T18:29:11;7.30;99.90
26278;DHT22;14000;52.056;8.510;2023-03-25T18:31:37;7.30;99.90
26278;DHT22;14000;52.056;8.510;2023-03-25T18:34:02;7.30;99.90
26278;DHT22;14000;52.056;8.510;2023-03-25T18:36:28;7.30;99.90
26278;DHT22;14000;52.056;8.510;2023-03-25T18:38:54;7.40;99.90
26278;DHT22;14000;52.056;8.510;2023-03-25T18:41:19;7.40;99.90
26278;DHT22;14000;52.056;8.510;2023-03-25T18:43:45;7.40;99.90
26278;DHT22;14000;52.056;8.510;2023-03-25T18:46:12;7.40;99.90
26278;DHT22;14000;52.056;8.510;2023-03-25T18:48:38;7.40;99.90
26278;DHT22;14000;52.056;8.510;2023-03-25T18:51:04;7.40;99.90
26278;DHT22;14000;52.056;8.510;2023-03-25T18:53:30;7.40;99.90
26278;DHT22;14000;52.056;8.510;2023-03-25T18:55:58;7.40;99.90
26278;DHT22;14000;52.056;8.510;2023-03-25T18:58:26;7.40;99.90
26278;DHT22;14000;52.056;8.510;2023-03-25T19:00:53;7.50;99.90